createdAt,value
2018-03-27T00:01:02.918Z,97807.31
2018-03-27T00:02:08.616Z,97807.31
2018-03-27T00:03:13.967Z,97806.20
2018-03-27T00:04:20.489Z,97803.75
2018-03-27T00:05:25.861Z,97805.08
2018-03-27T00:06:31.325Z,97797.69
2018-03-27T00:07:37.084Z,97800.89
2018-03-27T00:08:42.621Z,97799.72
2018-03-27T00:09:48.278Z,97800.19
2018-03-27T00:10:53.727Z,97800.87
2018-03-27T00:11:59.336Z,97801.34
2018-03-27T00:13:05.254Z,97799.98
2018-03-27T00:14:11.047Z,97794.83
2018-03-27T00:15:17.559Z,97793.46
2018-03-27T00:16:22.940Z,97791.43
2018-03-27T00:17:28.390Z,97788.19
2018-03-27T00:18:33.806Z,97790.53
2018-03-27T00:19:39.542Z,97785.80
2018-03-27T00:20:45.725Z,97790.46
2018-03-27T00:21:51.229Z,97786.91
2018-03-27T00:22:56.655Z,97792.42
2018-03-27T00:24:02.430Z,97796.27
2018-03-27T00:25:07.914Z,97796.05
2018-03-27T00:26:13.478Z,97791.66
2018-03-27T00:27:18.962Z,97802.92
2018-03-27T00:28:29.524Z,97799.53
2018-03-27T00:29:40.228Z,97798.16
2018-03-27T00:30:50.578Z,97796.52
2018-03-27T00:32:01.165Z,97798.84
2018-03-27T00:33:12.276Z,97800.30
2018-03-27T00:34:22.817Z,97799.31
2018-03-27T00:35:34.065Z,97802.00
2018-03-27T00:36:44.578Z,97806.20
2018-03-27T00:37:55.337Z,97799.74
2018-03-27T00:39:06.700Z,97805.98
2018-03-27T00:40:17.616Z,97802.47
2018-03-27T00:41:25.517Z,97801.69
2018-03-27T00:42:31.129Z,97802.48
2018-03-27T00:43:36.818Z,97798.14
2018-03-27T00:44:43.818Z,97799.56
2018-03-27T00:45:50.321Z,97795.00
2018-03-27T00:46:56.632Z,97801.66
2018-03-27T00:48:02.735Z,97793.32
2018-03-27T00:49:08.871Z,97789.36
2018-03-27T00:50:14.482Z,97796.72
2018-03-27T00:51:20.352Z,97794.98
2018-03-27T00:52:27.265Z,97795.39
2018-03-27T00:53:32.878Z,97795.14
2018-03-27T00:54:38.724Z,97795.95
2018-03-27T00:55:44.625Z,97793.14
2018-03-27T00:56:50.383Z,97794.45
2018-03-27T00:57:56.131Z,97795.68
2018-03-27T00:59:02.321Z,97796.14
2018-03-27T01:00:08.802Z,97789.47
2018-03-27T01:01:14.645Z,97791.19
2018-03-27T01:02:21.421Z,97796.55
2018-03-27T01:03:27.257Z,97801.56
2018-03-27T01:04:33.883Z,97796.67
2018-03-27T01:05:40.898Z,97802.42
2018-03-27T01:06:46.501Z,97792.88
2018-03-27T01:07:52.709Z,97791.64
2018-03-27T01:08:58.482Z,97793.94
2018-03-27T01:10:04.161Z,97795.22
2018-03-27T01:11:09.999Z,97794.03
2018-03-27T01:12:16.545Z,97798.48
2018-03-27T01:13:22.428Z,97789.68
2018-03-27T01:14:28.502Z,97794.22
2018-03-27T01:15:34.188Z,97795.38
2018-03-27T01:16:42.187Z,97789.52
2018-03-27T01:17:49.188Z,97789.52
2018-03-27T01:18:55.435Z,97789.56
2018-03-27T01:20:01.353Z,97788.31
2018-03-27T01:21:07.193Z,97790.73
2018-03-27T01:22:13.249Z,97798.53
2018-03-27T01:23:19.786Z,97793.70
2018-03-27T01:24:25.648Z,97797.38
2018-03-27T01:25:32.055Z,97789.55
2018-03-27T01:26:37.875Z,97794.95
2018-03-27T01:27:43.842Z,97787.88
2018-03-27T01:28:49.859Z,97783.55
2018-03-27T01:29:55.724Z,97787.88
2018-03-27T01:31:01.957Z,97784.11
2018-03-27T01:32:08.226Z,97780.84
2018-03-27T01:33:14.932Z,97770.30
2018-03-27T01:34:21.328Z,97777.10
2018-03-27T01:35:27.281Z,97776.13
2018-03-27T01:36:33.291Z,97777.65
2018-03-27T01:37:41.054Z,97777.78
2018-03-27T01:38:47.462Z,97772.47
2018-03-27T01:39:53.046Z,97770.05
2018-03-27T01:40:58.710Z,97768.38
2018-03-27T01:42:04.739Z,97767.02
2018-03-27T01:43:11.486Z,97761.48
2018-03-27T01:44:18.120Z,97763.83
2018-03-27T01:45:26.029Z,97768.30
2018-03-27T01:46:32.400Z,97762.38
2018-03-27T01:47:39.094Z,97765.02
2018-03-27T01:48:44.768Z,97770.83
2018-03-27T01:49:51.733Z,97766.05
2018-03-27T01:50:57.496Z,97767.27
2018-03-27T01:52:04.240Z,97764.42
2018-03-27T01:53:10.630Z,97763.89
2018-03-27T01:54:17.550Z,97766.02
2018-03-27T01:55:23.613Z,97763.89
2018-03-27T01:56:29.830Z,97759.49
2018-03-27T01:57:36.382Z,97762.16
2018-03-27T01:58:42.829Z,97759.25
2018-03-27T01:59:48.986Z,97767.17
2018-03-27T02:00:55.228Z,97764.20
2018-03-27T02:02:01.036Z,97760.48
2018-03-27T02:03:06.806Z,97765.77
2018-03-27T02:04:14.260Z,97764.73
2018-03-27T02:05:21.447Z,97762.81
2018-03-27T02:06:29.632Z,97755.11
2018-03-27T02:07:35.690Z,97757.81
2018-03-27T02:08:42.111Z,97753.98
2018-03-27T02:09:48.896Z,97754.20
2018-03-27T02:10:53.792Z,97755.41
2018-03-27T02:12:04.931Z,97752.12
2018-03-27T02:13:15.576Z,97758.05
2018-03-27T02:14:26.092Z,97752.05
2018-03-27T02:15:37.078Z,97756.12
2018-03-27T02:16:48.035Z,97760.02
2018-03-27T02:17:59.016Z,97763.62
2018-03-27T02:19:09.525Z,97758.09
2018-03-27T02:20:20.106Z,97757.48
2018-03-27T02:21:25.434Z,97757.28
2018-03-27T02:22:31.689Z,97752.97
2018-03-27T02:23:38.047Z,97752.34
2018-03-27T02:24:45.059Z,97751.23
2018-03-27T02:25:51.736Z,97750.33
2018-03-27T02:26:58.202Z,97751.16
2018-03-27T02:28:04.455Z,97754.88
2018-03-27T02:29:10.252Z,97754.88
2018-03-27T02:30:15.949Z,97755.38
2018-03-27T02:31:22.716Z,97758.44
2018-03-27T02:32:28.226Z,97760.89
2018-03-27T02:33:34.902Z,97757.77
2018-03-27T02:34:41.141Z,97752.78
2018-03-27T02:35:46.884Z,97751.38
2018-03-27T02:36:52.174Z,97754.23
2018-03-27T02:37:57.897Z,97754.59
2018-03-27T02:39:03.377Z,97752.97
2018-03-27T02:40:08.626Z,97748.17
2018-03-27T02:41:14.235Z,97744.37
2018-03-27T02:42:19.753Z,97745.73
2018-03-27T02:43:25.169Z,97747.36
2018-03-27T02:44:30.801Z,97744.19
2018-03-27T02:45:36.088Z,97741.83
2018-03-27T02:46:41.568Z,97740.91
2018-03-27T02:47:47.186Z,97751.73
2018-03-27T02:48:53.089Z,97744.88
2018-03-27T02:49:58.439Z,97743.84
2018-03-27T02:51:04.531Z,97739.18
2018-03-27T02:52:10.040Z,97738.11
2018-03-27T02:53:15.827Z,97743.69
2018-03-27T02:54:21.449Z,97743.52
2018-03-27T02:55:26.748Z,97738.64
2018-03-27T02:56:32.283Z,97745.09
2018-03-27T02:57:38.563Z,97743.66
2018-03-27T02:58:44.016Z,97749.12
2018-03-27T02:59:49.479Z,97748.17
2018-03-27T03:00:54.825Z,97749.06
2018-03-27T03:02:00.256Z,97749.83
2018-03-27T03:03:05.472Z,97750.12
2018-03-27T03:04:10.702Z,97741.89
2018-03-27T03:05:15.984Z,97739.92
2018-03-27T03:06:21.457Z,97738.03
2018-03-27T03:07:27.013Z,97743.52
2018-03-27T03:08:32.452Z,97741.05
2018-03-27T03:09:38.313Z,97737.16
2018-03-27T03:10:43.681Z,97740.13
2018-03-27T03:11:49.219Z,97743.86
2018-03-27T03:12:54.548Z,97737.48
2018-03-27T03:13:59.913Z,97742.42
2018-03-27T03:15:05.063Z,97747.16
2018-03-27T03:16:10.786Z,97741.36
2018-03-27T03:17:16.091Z,97741.48
2018-03-27T03:18:21.416Z,97741.66
2018-03-27T03:19:26.752Z,97744.77
2018-03-27T03:20:31.921Z,97737.59
2018-03-27T03:21:37.224Z,97744.54
2018-03-27T03:22:42.941Z,97742.35
2018-03-27T03:23:48.453Z,97745.83
2018-03-27T03:24:54.104Z,97739.72
2018-03-27T03:25:59.270Z,97734.34
2018-03-27T03:27:04.714Z,97739.06
2018-03-27T03:28:09.959Z,97733.86
2018-03-27T03:29:15.715Z,97739.41
2018-03-27T03:30:21.122Z,97733.76
2018-03-27T03:31:26.970Z,97729.33
2018-03-27T03:32:32.510Z,97735.38
2018-03-27T03:33:38.118Z,97735.02
2018-03-27T03:34:43.724Z,97727.05
2018-03-27T03:35:49.321Z,97730.20
2018-03-27T03:36:54.894Z,97731.47
2018-03-27T03:38:00.302Z,97733.16
2018-03-27T03:39:06.052Z,97736.89
2018-03-27T03:40:11.537Z,97734.27
2018-03-27T03:41:16.868Z,97734.38
2018-03-27T03:42:22.828Z,97733.67
2018-03-27T03:43:28.158Z,97735.42
2018-03-27T03:44:33.241Z,97732.60
2018-03-27T03:45:38.606Z,97727.43
2018-03-27T03:46:44.014Z,97734.06
2018-03-27T03:47:49.204Z,97733.94
2018-03-27T03:48:54.927Z,97732.02
2018-03-27T03:50:00.241Z,97731.47
2018-03-27T03:51:05.619Z,97731.27
2018-03-27T03:52:11.038Z,97727.59
2018-03-27T03:53:16.381Z,97728.30
2018-03-27T03:54:21.990Z,97731.20
2018-03-27T03:55:27.701Z,97731.50
2018-03-27T03:56:33.446Z,97726.47
2018-03-27T03:57:38.993Z,97726.53
2018-03-27T03:58:44.374Z,97723.92
2018-03-27T03:59:49.827Z,97729.50
2018-03-27T04:00:55.228Z,97727.38
2018-03-27T04:02:01.024Z,97730.58
2018-03-27T04:03:07.003Z,97729.37
2018-03-27T04:04:12.420Z,97727.72
2018-03-27T04:05:18.139Z,97733.14
2018-03-27T04:06:23.823Z,97732.64
2018-03-27T04:07:29.419Z,97737.37
2018-03-27T04:08:35.382Z,97729.85
2018-03-27T04:09:40.629Z,97733.67
2018-03-27T04:10:45.944Z,97731.06
2018-03-27T04:11:51.619Z,97728.44
2018-03-27T04:12:57.337Z,97730.76
2018-03-27T04:14:02.838Z,97734.33
2018-03-27T04:15:08.786Z,97732.67
2018-03-27T04:16:14.470Z,97728.36
2018-03-27T04:17:20.112Z,97733.80
2018-03-27T04:18:25.725Z,97728.35
2018-03-27T04:19:31.094Z,97731.52
2018-03-27T04:20:36.814Z,97735.44
2018-03-27T04:21:42.566Z,97731.20
2018-03-27T04:22:48.042Z,97728.76
2018-03-27T04:23:53.724Z,97729.17
2018-03-27T04:24:59.146Z,97729.30
2018-03-27T04:26:05.075Z,97722.89
2018-03-27T04:27:11.391Z,97725.39
2018-03-27T04:28:16.889Z,97725.16
2018-03-27T04:29:22.449Z,97717.52
2018-03-27T04:30:28.119Z,97727.41
2018-03-27T04:31:33.802Z,97728.80
2018-03-27T04:32:39.710Z,97724.64
2018-03-27T04:33:46.001Z,97716.28
2018-03-27T04:34:51.529Z,97720.58
2018-03-27T04:35:57.125Z,97726.22
2018-03-27T04:37:02.427Z,97725.67
2018-03-27T04:38:07.731Z,97729.05
2018-03-27T04:39:12.937Z,97730.85
2018-03-27T04:40:18.341Z,97720.41
2018-03-27T04:41:23.476Z,97724.31
2018-03-27T04:42:28.718Z,97722.64
2018-03-27T04:43:34.488Z,97726.93
2018-03-27T04:44:40.035Z,97721.34
2018-03-27T04:45:45.515Z,97718.50
2018-03-27T04:46:51.208Z,97723.88
2018-03-27T04:47:56.808Z,97721.37
2018-03-27T04:49:02.372Z,97726.19
2018-03-27T04:50:08.112Z,97724.73
2018-03-27T04:51:14.201Z,97722.13
2018-03-27T04:52:19.855Z,97718.69
2018-03-27T04:53:25.669Z,97722.77
2018-03-27T04:54:31.415Z,97728.56
2018-03-27T04:55:37.394Z,97728.16
2018-03-27T04:56:43.152Z,97724.53
2018-03-27T04:57:48.983Z,97727.83
2018-03-27T04:58:54.976Z,97733.83
2018-03-27T05:00:00.717Z,97727.19
2018-03-27T05:01:06.266Z,97726.64
2018-03-27T05:02:11.733Z,97731.09
2018-03-27T05:03:17.255Z,97728.09
2018-03-27T05:04:22.800Z,97727.97
2018-03-27T05:05:28.158Z,97726.15
2018-03-27T05:06:34.435Z,97728.44
2018-03-27T05:07:40.081Z,97723.02
2018-03-27T05:08:45.688Z,97726.64
2018-03-27T05:09:51.637Z,97722.08
2018-03-27T05:10:57.536Z,97722.65
2018-03-27T05:12:03.307Z,97723.27
2018-03-27T05:13:09.235Z,97720.16
2018-03-27T05:14:14.770Z,97722.08
2018-03-27T05:15:20.374Z,97719.91
2018-03-27T05:16:26.225Z,97720.98
2018-03-27T05:17:31.841Z,97724.42
2018-03-27T05:18:37.651Z,97722.78
2018-03-27T05:19:43.595Z,97719.19
2018-03-27T05:20:49.561Z,97722.17
2018-03-27T05:21:55.327Z,97722.93
2018-03-27T05:23:01.070Z,97722.42
2018-03-27T05:24:06.780Z,97717.89
2018-03-27T05:25:12.913Z,97723.22
2018-03-27T05:26:18.681Z,97725.28
2018-03-27T05:27:24.481Z,97726.77
2018-03-27T05:28:30.187Z,97718.23
2018-03-27T05:29:36.180Z,97724.55
2018-03-27T05:30:42.225Z,97723.52
2018-03-27T05:31:48.466Z,97722.69
2018-03-27T05:32:54.600Z,97718.70
2018-03-27T05:34:00.417Z,97727.24
2018-03-27T05:35:06.819Z,97721.72
2018-03-27T05:36:12.960Z,97727.51
2018-03-27T05:37:18.935Z,97725.05
2018-03-27T05:38:25.143Z,97728.50
2018-03-27T05:39:30.825Z,97722.28
2018-03-27T05:40:36.906Z,97725.37
2018-03-27T05:41:42.714Z,97723.73
2018-03-27T05:42:48.552Z,97731.17
2018-03-27T05:43:55.249Z,97726.94
2018-03-27T05:45:01.688Z,97726.80
2018-03-27T05:46:07.480Z,97726.14
2018-03-27T05:47:13.150Z,97724.56
2018-03-27T05:48:19.198Z,97729.82
2018-03-27T05:49:25.012Z,97726.34
2018-03-27T05:50:30.892Z,97718.11
2018-03-27T05:51:37.592Z,97726.52
2018-03-27T05:52:43.364Z,97722.01
2018-03-27T05:53:49.484Z,97722.28
2018-03-27T05:54:56.907Z,97713.03
2018-03-27T05:56:02.840Z,97715.31
2018-03-27T05:57:08.689Z,97718.73
2018-03-27T05:58:15.095Z,97719.40
2018-03-27T05:59:20.945Z,97720.51
2018-03-27T06:00:27.182Z,97717.23
2018-03-27T06:01:32.938Z,97718.62
2018-03-27T06:02:38.945Z,97719.14
2018-03-27T06:03:45.492Z,97714.76
2018-03-27T06:04:51.613Z,97723.21
2018-03-27T06:05:58.363Z,97719.61
2018-03-27T06:07:04.269Z,97725.88
2018-03-27T06:08:10.132Z,97717.81
2018-03-27T06:09:16.550Z,97725.13
2018-03-27T06:10:22.594Z,97721.79
2018-03-27T06:11:28.434Z,97722.06
2018-03-27T06:12:34.170Z,97720.50
2018-03-27T06:13:40.108Z,97718.92
2018-03-27T06:14:46.246Z,97727.05
2018-03-27T06:15:52.290Z,97727.97
2018-03-27T06:16:58.179Z,97724.02
2018-03-27T06:18:04.353Z,97729.71
2018-03-27T06:19:10.095Z,97734.01
2018-03-27T06:20:16.132Z,97729.77
2018-03-27T06:21:22.571Z,97726.03
2018-03-27T06:22:28.394Z,97730.45
2018-03-27T06:23:34.181Z,97728.80
2018-03-27T06:24:40.184Z,97732.58
2018-03-27T06:25:46.026Z,97723.75
2018-03-27T06:26:52.070Z,97730.09
2018-03-27T06:27:58.338Z,97732.39
2018-03-27T06:29:04.106Z,97728.83
2018-03-27T06:30:09.986Z,97733.93
2018-03-27T06:31:15.957Z,97732.10
2018-03-27T06:32:21.768Z,97728.16
2018-03-27T06:33:28.481Z,97731.98
2018-03-27T06:34:34.596Z,97731.47
2018-03-27T06:35:40.784Z,97724.98
2018-03-27T06:36:46.788Z,97734.33
2018-03-27T06:37:52.530Z,97726.62
2018-03-27T06:38:58.216Z,97727.56
2018-03-27T06:40:03.725Z,97727.98
2018-03-27T06:41:09.875Z,97726.24
2018-03-27T06:42:15.545Z,97731.52
2018-03-27T06:43:21.078Z,97727.13
2018-03-27T06:44:26.670Z,97723.71
2018-03-27T06:45:32.366Z,97724.33
2018-03-27T06:46:38.146Z,97721.00
2018-03-27T06:47:44.148Z,97723.26
2018-03-27T06:48:49.833Z,97726.80
2018-03-27T06:49:55.227Z,97721.86
2018-03-27T06:51:00.820Z,97724.09
2018-03-27T06:52:06.368Z,97720.98
2018-03-27T06:53:11.976Z,97723.59
2018-03-27T06:54:18.076Z,97722.42
2018-03-27T06:55:23.621Z,97722.16
2018-03-27T06:56:29.266Z,97716.91
2018-03-27T06:57:34.969Z,97720.80
2018-03-27T06:58:40.436Z,97717.52
2018-03-27T06:59:46.122Z,97723.19
2018-03-27T07:00:52.217Z,97720.75
2018-03-27T07:01:57.603Z,97721.83
2018-03-27T07:03:03.148Z,97721.55
2018-03-27T07:04:08.627Z,97721.36
2018-03-27T07:05:14.013Z,97725.08
2018-03-27T07:06:19.611Z,97724.27
2018-03-27T07:07:25.575Z,97722.98
2018-03-27T07:08:31.167Z,97720.97
2018-03-27T07:09:36.780Z,97718.38
2018-03-27T07:10:42.458Z,97718.27
2018-03-27T07:11:48.206Z,97719.50
2018-03-27T07:12:53.941Z,97717.70
2018-03-27T07:14:00.166Z,97716.27
2018-03-27T07:15:05.921Z,97721.67
2018-03-27T07:16:12.048Z,97720.29
2018-03-27T07:17:17.954Z,97716.47
2018-03-27T07:18:23.372Z,97720.34
2018-03-27T07:19:28.955Z,97713.53
2018-03-27T07:20:34.881Z,97713.27
2018-03-27T07:21:40.482Z,97710.41
2018-03-27T07:22:45.962Z,97707.00
2018-03-27T07:23:51.523Z,97706.27
2018-03-27T07:24:57.327Z,97714.51
2018-03-27T07:26:02.920Z,97704.77
2018-03-27T07:27:08.784Z,97708.34
2018-03-27T07:28:14.442Z,97711.16
2018-03-27T07:29:20.109Z,97709.80
2018-03-27T07:30:25.695Z,97705.09
2018-03-27T07:31:31.239Z,97714.20
2018-03-27T07:32:36.600Z,97703.11
2018-03-27T07:33:42.996Z,97700.98
2018-03-27T07:34:48.565Z,97706.86
2018-03-27T07:35:54.114Z,97705.13
2018-03-27T07:36:59.782Z,97697.83
2018-03-27T07:38:05.348Z,97697.63
2018-03-27T07:39:11.301Z,97699.73
2018-03-27T07:40:16.944Z,97700.56
2018-03-27T07:41:22.801Z,97702.35
2018-03-27T07:42:28.252Z,97698.50
2018-03-27T07:43:34.188Z,97703.59
2018-03-27T07:44:39.906Z,97695.89
2018-03-27T07:45:45.874Z,97696.59
2018-03-27T07:46:51.456Z,97696.22
2018-03-27T07:47:56.842Z,97696.69
2018-03-27T07:49:02.774Z,97703.81
2018-03-27T07:50:08.416Z,97705.50
2018-03-27T07:51:14.299Z,97701.72
2018-03-27T07:52:20.990Z,97704.30
2018-03-27T07:53:26.279Z,97703.58
2018-03-27T07:54:31.653Z,97696.30
2018-03-27T07:55:37.069Z,97697.08
2018-03-27T07:56:42.370Z,97691.86
2018-03-27T07:57:47.591Z,97678.31
2018-03-27T07:58:53.399Z,97686.75
2018-03-27T07:59:58.960Z,97688.91
2018-03-27T08:01:04.409Z,97686.03
2018-03-27T08:02:09.697Z,97670.60
2018-03-27T08:03:15.312Z,97673.02
2018-03-27T08:04:21.183Z,97677.70
2018-03-27T08:05:26.544Z,97675.98
2018-03-27T08:06:31.723Z,97679.95
2018-03-27T08:07:37.165Z,97675.08
2018-03-27T08:08:42.489Z,97682.03
2018-03-27T08:09:47.885Z,97677.89
2018-03-27T08:10:53.655Z,97683.72
2018-03-27T08:11:59.082Z,97688.83
2018-03-27T08:13:04.607Z,97676.03
2018-03-27T08:14:10.163Z,97672.55
2018-03-27T08:15:15.623Z,97676.36
2018-03-27T08:16:20.976Z,97672.99
2018-03-27T08:17:26.745Z,97678.38
2018-03-27T08:18:32.403Z,97669.46
2018-03-27T08:19:37.848Z,97674.63
2018-03-27T08:20:43.301Z,97670.50
2018-03-27T08:21:48.838Z,97668.34
2018-03-27T08:22:54.287Z,97672.59
2018-03-27T08:23:59.979Z,97663.31
2018-03-27T08:25:05.350Z,97662.08
2018-03-27T08:26:10.804Z,97663.67
2018-03-27T08:27:16.231Z,97668.84
2018-03-27T08:28:21.686Z,97669.58
2018-03-27T08:29:27.091Z,97661.66
2018-03-27T08:30:32.778Z,97659.20
2018-03-27T08:31:38.281Z,97662.25
2018-03-27T08:32:43.981Z,97660.14
2018-03-27T08:33:49.562Z,97654.73
2018-03-27T08:34:55.278Z,97654.28
2018-03-27T08:36:00.773Z,97656.35
2018-03-27T08:37:06.320Z,97657.46
2018-03-27T08:38:12.158Z,97653.56
2018-03-27T08:39:17.557Z,97654.68
2018-03-27T08:40:23.037Z,97654.47
2018-03-27T08:41:28.389Z,97649.48
2018-03-27T08:42:33.784Z,97644.94
2018-03-27T08:43:39.541Z,97642.18
2018-03-27T08:44:44.917Z,97643.25
2018-03-27T08:45:50.312Z,97634.77
2018-03-27T08:46:55.729Z,97633.49
2018-03-27T08:48:01.065Z,97632.81
2018-03-27T08:49:06.525Z,97630.70
2018-03-27T08:50:12.047Z,97622.36
2018-03-27T08:51:17.324Z,97619.62
2018-03-27T08:52:22.559Z,97616.36
2018-03-27T08:53:27.944Z,97622.49
2018-03-27T08:54:33.304Z,97622.66
2018-03-27T08:55:39.062Z,97619.23
2018-03-27T08:56:44.875Z,97622.83
2018-03-27T08:57:51.176Z,97624.65
2018-03-27T08:58:56.500Z,97617.72
2018-03-27T09:00:01.972Z,97613.38
2018-03-27T09:01:07.946Z,97613.63
2018-03-27T09:02:13.669Z,97623.44
2018-03-27T09:03:19.081Z,97622.56
2018-03-27T09:04:24.406Z,97618.44
2018-03-27T09:05:29.899Z,97623.52
2018-03-27T09:06:35.302Z,97623.69
2018-03-27T09:07:40.900Z,97617.01
2018-03-27T09:08:46.337Z,97613.89
2018-03-27T09:09:51.870Z,97613.48
2018-03-27T09:10:57.329Z,97611.63
2018-03-27T09:12:02.582Z,97613.41
2018-03-27T09:13:07.944Z,97609.20
2018-03-27T09:14:13.842Z,97607.74
2018-03-27T09:15:19.326Z,97602.80
2018-03-27T09:16:24.878Z,97598.59
2018-03-27T09:17:30.131Z,97597.39
2018-03-27T09:18:35.583Z,97605.94
2018-03-27T09:19:40.999Z,97597.44
2018-03-27T09:20:46.392Z,97602.34
2018-03-27T09:21:51.701Z,97599.32
2018-03-27T09:22:57.100Z,97601.61
2018-03-27T09:24:02.455Z,97595.75
2018-03-27T09:25:07.849Z,97596.18
2018-03-27T09:26:13.648Z,97592.67
2018-03-27T09:27:19.041Z,97584.91
2018-03-27T09:28:24.358Z,97586.14
2018-03-27T09:29:29.694Z,97589.98
2018-03-27T09:30:35.856Z,97579.75
2018-03-27T09:31:41.110Z,97581.30
2018-03-27T09:32:46.839Z,97579.59
2018-03-27T09:33:52.038Z,97578.41
2018-03-27T09:34:57.300Z,97575.09
2018-03-27T09:36:02.603Z,97568.66
2018-03-27T09:37:07.781Z,97565.56
2018-03-27T09:38:12.992Z,97568.63
2018-03-27T09:39:18.608Z,97571.00
2018-03-27T09:40:23.912Z,97570.55
2018-03-27T09:41:29.201Z,97569.34
2018-03-27T09:42:34.627Z,97566.97
2018-03-27T09:43:40.019Z,97564.89
2018-03-27T09:44:45.166Z,97564.24
2018-03-27T09:45:50.815Z,97569.20
2018-03-27T09:46:56.154Z,97564.57
2018-03-27T09:48:01.356Z,97563.87
2018-03-27T09:49:06.822Z,97564.70
2018-03-27T09:50:12.138Z,97562.61
2018-03-27T09:51:17.342Z,97565.47
2018-03-27T09:52:23.013Z,97566.05
2018-03-27T09:53:28.177Z,97558.88
2018-03-27T09:54:33.317Z,97567.14
2018-03-27T09:55:38.454Z,97565.84
2018-03-27T09:56:43.640Z,97560.63
2018-03-27T09:57:48.780Z,97563.02
2018-03-27T09:58:54.322Z,97554.81
2018-03-27T09:59:59.591Z,97554.77
2018-03-27T10:01:08.739Z,97554.63
2018-03-27T10:02:13.928Z,97554.56
2018-03-27T10:03:19.164Z,97547.34
2018-03-27T10:04:24.355Z,97548.52
2018-03-27T10:05:29.971Z,97548.51
2018-03-27T10:06:35.230Z,97548.09
2018-03-27T10:07:40.492Z,97544.68
2018-03-27T10:08:45.815Z,97543.64
2018-03-27T10:09:51.139Z,97536.33
2018-03-27T10:10:57.185Z,97539.70
2018-03-27T10:12:02.317Z,97535.39
2018-03-27T10:13:07.551Z,97532.65
2018-03-27T10:14:12.785Z,97528.36
2018-03-27T10:15:17.969Z,97521.33
2018-03-27T10:16:23.251Z,97522.23
2018-03-27T10:17:28.687Z,97526.73
2018-03-27T10:18:33.909Z,97532.13
2018-03-27T10:19:38.939Z,97532.03
2018-03-27T10:20:44.059Z,97532.68
2018-03-27T10:21:49.395Z,97528.78
2018-03-27T10:22:55.495Z,97526.08
2018-03-27T10:24:01.072Z,97525.31
2018-03-27T10:25:06.270Z,97533.38
2018-03-27T10:26:11.334Z,97525.91
2018-03-27T10:27:16.514Z,97513.91
2018-03-27T10:28:21.657Z,97520.30
2018-03-27T10:29:26.837Z,97516.22
2018-03-27T10:30:32.316Z,97514.78
2018-03-27T10:31:38.564Z,97513.41
2018-03-27T10:32:43.807Z,97508.91
2018-03-27T10:33:49.181Z,97510.63
2018-03-27T10:34:54.310Z,97514.89
2018-03-27T10:36:00.208Z,97510.09
2018-03-27T10:37:05.910Z,97502.33
2018-03-27T10:38:11.271Z,97509.56
2018-03-27T10:39:16.690Z,97505.70
2018-03-27T10:40:21.975Z,97497.40
2018-03-27T10:41:27.259Z,97490.34
2018-03-27T10:42:32.627Z,97491.17
2018-03-27T10:43:38.335Z,97500.52
2018-03-27T10:44:43.734Z,97497.75
2018-03-27T10:45:49.121Z,97489.09
2018-03-27T10:46:54.409Z,97488.28
2018-03-27T10:47:59.688Z,97500.16
2018-03-27T10:49:05.590Z,97483.63
2018-03-27T10:50:11.304Z,97483.56
2018-03-27T10:51:16.605Z,97484.08
2018-03-27T10:52:21.848Z,97474.94
2018-03-27T10:53:27.144Z,97476.89
2018-03-27T10:54:32.484Z,97475.41
2018-03-27T10:55:37.840Z,97475.02
2018-03-27T10:56:43.482Z,97463.76
2018-03-27T10:57:48.823Z,97465.64
2018-03-27T10:58:54.080Z,97469.73
2018-03-27T10:59:59.260Z,97470.95
2018-03-27T11:01:04.512Z,97467.27
2018-03-27T11:02:09.762Z,97475.96
2018-03-27T11:03:15.458Z,97458.16
2018-03-27T11:04:20.756Z,97461.78
2018-03-27T11:05:26.001Z,97454.36
2018-03-27T11:06:31.560Z,97465.12
2018-03-27T11:07:36.852Z,97470.46
2018-03-27T11:08:42.185Z,97459.55
2018-03-27T11:09:47.921Z,97458.19
2018-03-27T11:10:53.118Z,97447.53
2018-03-27T11:11:58.383Z,97445.91
2018-03-27T11:13:03.630Z,97443.41
2018-03-27T11:14:08.893Z,97447.44
2018-03-27T11:15:13.965Z,97459.89
2018-03-27T11:16:19.617Z,97445.58
2018-03-27T11:17:24.705Z,97406.55
2018-03-27T11:18:29.875Z,97436.00
2018-03-27T11:19:35.199Z,97441.44
2018-03-27T11:20:40.457Z,97433.70
2018-03-27T11:21:45.651Z,97459.58
2018-03-27T11:22:51.279Z,97443.39
2018-03-27T11:23:56.454Z,97439.36
2018-03-27T11:25:02.244Z,97440.95
2018-03-27T11:26:07.393Z,97434.83
2018-03-27T11:27:12.504Z,97444.61
2018-03-27T11:28:17.377Z,97429.90
2018-03-27T11:29:22.612Z,97429.44
2018-03-27T11:30:27.763Z,97428.36
2018-03-27T11:31:33.035Z,97422.92
2018-03-27T11:32:38.334Z,97422.63
2018-03-27T11:33:43.464Z,97412.63
2018-03-27T11:34:48.699Z,97424.53
2018-03-27T11:35:54.112Z,97408.39
2018-03-27T11:36:59.474Z,97406.77
2018-03-27T11:38:04.772Z,97408.16
2018-03-27T11:39:10.709Z,97410.59
2018-03-27T11:40:15.979Z,97414.30
2018-03-27T11:41:21.301Z,97412.09
2018-03-27T11:42:26.996Z,97407.95
2018-03-27T11:43:32.280Z,97410.48
2018-03-27T11:44:37.529Z,97410.08
2018-03-27T11:45:42.804Z,97401.93
2018-03-27T11:46:47.994Z,97406.02
2018-03-27T11:47:53.200Z,97400.91
2018-03-27T11:48:59.486Z,97408.42
2018-03-27T11:50:04.863Z,97398.19
2018-03-27T11:51:10.048Z,97400.85
2018-03-27T11:52:15.419Z,97393.53
2018-03-27T11:53:20.815Z,97403.27
2018-03-27T11:54:26.237Z,97395.70
2018-03-27T11:55:31.745Z,97401.48
2018-03-27T11:56:36.917Z,97390.31
2018-03-27T11:57:42.204Z,97384.95
2018-03-27T11:58:47.695Z,97387.92
2018-03-27T11:59:52.942Z,97387.22
2018-03-27T12:00:58.213Z,97382.59
2018-03-27T12:02:03.912Z,97380.09
2018-03-27T12:03:09.236Z,97382.58
2018-03-27T12:04:14.433Z,97386.39
2018-03-27T12:05:19.706Z,97370.23
2018-03-27T12:06:25.026Z,97378.67
2018-03-27T12:07:30.292Z,97380.53
2018-03-27T12:08:36.166Z,97368.94
2018-03-27T12:09:41.596Z,97378.92
2018-03-27T12:10:46.992Z,97364.55
2018-03-27T12:11:52.110Z,97364.00
2018-03-27T12:12:57.278Z,97355.61
2018-03-27T12:14:03.258Z,97355.25
2018-03-27T12:15:08.919Z,97357.47
2018-03-27T12:16:14.168Z,97361.90
2018-03-27T12:17:19.460Z,97356.09
2018-03-27T12:18:24.578Z,97358.95
2018-03-27T12:19:29.881Z,97353.31
2018-03-27T12:20:35.036Z,97349.75
2018-03-27T12:21:40.583Z,97344.64
2018-03-27T12:22:45.868Z,97344.06
2018-03-27T12:23:51.058Z,97341.70
2018-03-27T12:24:56.338Z,97336.75
2018-03-27T12:26:01.727Z,97329.62
2018-03-27T12:27:06.945Z,97325.34
2018-03-27T12:28:12.430Z,97320.08
2018-03-27T12:29:17.696Z,97330.08
2018-03-27T12:30:22.793Z,97319.89
2018-03-27T12:31:27.863Z,97329.48
2018-03-27T12:32:33.518Z,97328.41
2018-03-27T12:33:38.612Z,97326.57
2018-03-27T12:34:44.098Z,97309.81
2018-03-27T12:35:49.285Z,97328.32
2018-03-27T12:36:54.739Z,97334.64
2018-03-27T12:37:59.978Z,97325.43
2018-03-27T12:39:05.440Z,97316.46
2018-03-27T12:40:10.584Z,97318.97
2018-03-27T12:41:16.040Z,97307.61
2018-03-27T12:42:21.408Z,97313.74
2018-03-27T12:43:26.538Z,97327.72
2018-03-27T12:44:31.670Z,97314.14
2018-03-27T12:45:36.929Z,97311.23
2018-03-27T12:46:42.102Z,97320.02
2018-03-27T12:47:47.632Z,97306.81
2018-03-27T12:48:53.884Z,97310.45
2018-03-27T12:49:59.405Z,97313.09
2018-03-27T12:51:05.037Z,97312.88
2018-03-27T12:52:11.547Z,97320.09
2018-03-27T12:53:16.870Z,97309.55